Tiempo atmosférico en la estación meteorológica de Jumilla, Murcia (505 m.)



Fecha
DESCASC
Temp. máxima en grados centígrados (hora)
DESCASC
Temp. mínima en grados centígrados (hora)
DESCASC
Temp. media en grados centígrados
DESCASC
Racha de viento máxima en m/sg (hora)
DESCASC
Velocidad máxima media en intervalos de 10 minutos(hora)
DESCASC
Precipitaciones diarias en mm
DESCASC
Precipitaciones de 00:00 a 06:00 en mm
DESCASC
Precipitaciones de 06:00 a 12:00 en mm
DESCASC
Precipitaciones de 12:00 a 18:00 en mm
DESCASC
Precipitaciones de 18:00 a 24:00 en mm
DESCASC
02-04-2020 17.7 (16:50) 4.2 (08:00) 11 10.83 (17:10) 6.39 (17:10) 0.2 0 0 0.2 0
01-04-2020 18.6 (16:10) 5.7 (07:50) 12.2 9.72 (18:00) 5.28 (18:00) 0.4 0.2 0 0 0.2
31-03-2020 15.8 (17:10) 6.3 (00:00) 11.1 11.94 (00:20) 6.94 (00:10) 0.4 0 0.2 0.2 0
30-03-2020 16.5 (13:20) 5.8 (00:00) 11.2 10.83 (23:50) 7.78 (23:50) 1.8 0 0 1.4 0.4
29-03-2020 19.3 (17:30) 1.1 (00:00) 10.2 6.39 (12:10) 3.33 (16:50) 0 0 0 0 0
28-03-2020 13.9 (13:40) 4.4 (00:00) 9.1 6.67 (02:00) 2.78 (17:20) 8 3.8 3.6 0.6 0
27-03-2020 7.7 (01:30) 5.6 (00:00) 6.6 8.61 (14:20) 5 (14:20) 3.4 0 2 0.4 1
26-03-2020 16 (16:30) 6.3 (00:00) 11.2 11.39 (16:50) 6.67 (13:20) 0 0 0 0 0
25-03-2020 14.1 (17:00) 5.2 (00:00) 9.7 7.5 (19:20) 4.72 (19:30) 6.2 0.2 0 0 6
24-03-2020 10.8 (13:10) 8 (00:00) 9.4 12.22 (17:40) 6.67 (17:20) 33.8 20.2 11 2.6 0
23-03-2020 14.5 (14:30) 8.1 (00:00) 11.3 10.83 (16:50) 6.11 (16:50) 2.8 0 0 0.6 2.2
22-03-2020 11.8 (11:50) 4.2 (05:10) 8 6.11 (14:00) 3.61 (14:00) 1.8 0 0 1.8 0
21-03-2020 13.3 (11:40) 6 (00:00) 9.7 8.89 (15:40) 5.56 (15:40) 17 0 0 14.2 2.8
20-03-2020 14.1 (16:30) 5.1 (00:00) 9.6 9.44 (16:50) 6.11 (17:00) 0 0 0 0 0
19-03-2020 15.8 (14:10) 6.2 (00:00) 11 7.5 (18:40) 4.17 (17:00) 0 0 0 0 0
18-03-2020 15.5 (15:50) 6.7 (00:00) 11.1 11.67 (11:10) 7.22 (11:10) 0 0 0 0 0
17-03-2020 13.2 (17:30) 5.4 (00:00) 9.3 14.72 (18:20) 7.78 (19:10) 0 0 0 0 0
16-03-2020 12.5 (10:10) 4.7 (00:00) 8.6 12.78 (10:40) 6.67 (10:30) 9.2 1.4 2.4 5.2 0.2
15-03-2020 20.6 (14:20) 7.7 (00:00) 14.2 9.44 (16:50) 5.83 (17:50) 0 0 0 0 0
14-03-2020 21.9 (16:00) 5.6 (00:00) 13.7 7.5 (16:30) 3.61 (16:30) 0 0 0 0 0
13-03-2020 21.8 (16:00) 7.6 (05:50) 14.7 7.78 (16:00) 5 (12:30) 0 0 0 0 0
12-03-2020 27.3 (16:00) 6.6 (00:00) 16.9 6.39 (13:40) 4.17 (17:40) 0 0 0 0 0
11-03-2020 29.4 (17:10) 7.6 (00:00) 18.5 6.11 (16:10) 3.61 (15:50) 0 0 0 0 0
10-03-2020 23.9 (17:50) 8.1 (00:00) 16 8.61 (00:40) 4.72 (00:10) 0 0 0 0 0
09-03-2020 20.1 (16:40) 8 (00:00) 14.1 12.5 (14:20) 7.5 (13:20) 0 0 0 0 0
08-03-2020 22.3 (16:20) 3.7 (00:00) 13 8.89 (17:40) 4.17 (14:20) 0 0 0 0 0
07-03-2020 17.3 (17:40) 5.3 (00:00) 11.3 12.78 (06:20) 6.94 (13:30) 0 0 0 0 0
06-03-2020 14.5 (16:50) 6.2 (00:00) 10.3 17.22 (15:40) 10 (15:20) 0.6 0 0 0.6 0
05-03-2020 20.3 (14:30) 10.2 (00:00) 15.2 16.11 (14:30) 9.17 (14:50) 0 0 0 0 0

Gráficas

Temp. máximas Temp. mínimas Temp. medias Precipitaciones Rachas de viento máximas Velocidades máximas media en intervalos de 10 minutos

Datos horarios

Fecha y hora oficial Temperatura (ºC) Velocidad del viento (km/h) Dirección del viento Racha (km/h) Dirección de racha Precipitación (mm) Presión (hPa) Tendencia (hPa) Humedad (%)
2020-04-03 23:00:00 10 5 Sudeste 18 Este 0 -- -- 79
2020-04-03 22:00:00 10.8 9 Sudeste 18 Sudeste 0 -- -- 74
2020-04-03 21:00:00 11.9 3 Este 15 Sudeste 0 -- -- 68
2020-04-03 20:00:00 14.2 9 Sudeste 18 Sur 0 -- -- 61
2020-04-03 19:00:00 15.5 9 Sur 22 Sur 0 -- -- 57
2020-04-03 18:00:00 18.7 10 Sudoeste 21 Sur 0 -- -- 50
2020-04-03 17:00:00 18 6 Sudoeste 17 Sur 0 -- -- 49
2020-04-03 16:00:00 17.5 3 Noroeste 17 Oeste 0 -- -- 46
2020-04-03 15:00:00 16.7 12 Oeste 19 Oeste 0 -- -- 53
2020-04-03 14:00:00 16.7 4 Oeste 15 Oeste 0 -- -- 57
2020-04-03 13:00:00 15.6 5 Este 12 Este 0 -- -- 57
2020-04-03 12:00:00 14 5 Este 14 Este 0.2 -- -- 64
2020-04-03 11:00:00 12.2 7 Este 16 Norte 0 -- -- 70
2020-04-03 10:00:00 9.8 8 Norte 14 Norte 0 -- -- 85
2020-04-03 09:00:00 7.5 4 Norte 8 Nordeste 0 -- -- 94
2020-04-03 08:00:00 5.8 3 Norte 12 Noroeste 0 -- -- 96
2020-04-03 07:00:00 6 2 Noroeste 9 Norte 0 -- -- 96
2020-04-03 06:00:00 7 3 Nordeste 8 Norte 0 -- -- 97
2020-04-03 05:00:00 7.1 2 Norte 6 Noroeste 0 -- -- 97
2020-04-03 04:00:00 7.7 2 Nordeste 4 Noroeste 0 -- -- 96
2020-04-03 03:00:00 8.3 0 Calma 5 Nordeste 0 -- -- 94
2020-04-03 02:00:00 9 2 Sudeste 4 Nordeste 0 -- -- 94
2020-04-03 01:00:00 8.9 2 Norte 3 Norte 0 -- -- 95
2020-04-03 00:00:00 8.9 0 Calma 3 Nordeste 0 -- -- 94
2020-04-02 23:00:00 9.1 0 Calma 10 Sudeste 0 -- -- 91
2020-04-02 22:00:00 9.3 6 Sudeste 10 Sudeste 0 -- -- 89
2020-04-02 21:00:00 9.2 4 Nordeste 10 Este 0 -- -- 88
2020-04-02 20:00:00 11.1 5 Oeste 23 Sudeste 0 -- -- 82
2020-04-02 19:00:00 10.6 9 Sudeste 30 Sudeste 0 -- -- 88
2020-04-02 18:00:00 11.7 14 Sudeste 39 Este 0 -- -- 79
2020-04-02 17:00:00 17.5 7 Norte 21 Noroeste 0 -- -- 49
2020-04-02 16:00:00 16.7 6 Oeste 17 Sudeste 0 -- -- 50
2020-04-02 15:00:00 16.1 6 Sudeste 15 Este 0 -- -- 54
2020-04-02 14:00:00 15 5 Nordeste 17 Sudeste 0.2 -- -- 61
2020-04-02 13:00:00 13.5 3 Este 11 Sur 0 -- -- 68
2020-04-02 12:00:00 12.6 4 Sudeste 12 Este 0 -- -- 71
2020-04-02 11:00:00 10.3 3 Este 9 Este 0 -- -- 80
2020-04-02 10:00:00 9.4 2 Este 5 Norte 0 -- -- 96
2020-04-02 09:00:00 6.8 3 Este 10 Este 0 -- -- 100
2020-04-02 08:00:00 4.2 4 Noroeste 5 Noroeste 0 -- -- 98
2020-04-02 07:00:00 5.3 0 Calma 6 Norte 0 -- -- 98
2020-04-02 06:00:00 5.7 0 Calma 6 Norte 0 -- -- 97
2020-04-02 05:00:00 6.7 5 Norte 6 Noroeste 0 -- -- 96
2020-04-02 04:00:00 8.1 0 Calma 7 Sudoeste 0 -- -- 95
2020-04-02 03:00:00 8.7 0 Calma 4 Oeste 0 -- -- 96
2020-04-02 02:00:00 8.9 0 Calma 5 Norte 0 -- -- 95
2020-04-02 01:00:00 9 0 Calma 15 Este 0 -- -- 94
2020-04-02 00:00:00 9.3 6 Este 20 Oeste 0 -- -- 93
2020-04-01 23:00:00 10.2 7 Sudoeste 21 Oeste 0 -- -- 93
2020-04-01 22:00:00 11.3 9 Sur 17 Sur 0 -- -- 87
2020-04-01 21:00:00 12.5 10 Este 18 Este 0 -- -- 76
2020-04-01 20:00:00 13.6 5 Este 17 Este 0.2 -- -- 70
2020-04-01 19:00:00 14.1 9 Nordeste 31 Norte 0 -- -- 66
2020-04-01 18:00:00 13.7 19 Noroeste 35 Noroeste 0 -- -- 72
2020-04-01 17:00:00 16.1 14 Norte 24 Oeste 0 -- -- 63
2020-04-01 16:00:00 18.4 8 Sudoeste 15 Sudoeste 0 -- -- 53
2020-04-01 15:00:00 18.3 5 Oeste 12 Sudoeste 0 -- -- 50
2020-04-01 14:00:00 17.3 5 Noroeste 13 Noroeste 0 -- -- 52
2020-04-01 13:00:00 15.2 5 Noroeste 15 Noroeste 0 -- -- 63
2020-04-01 12:00:00 15.4 5 Sudoeste 9 Sudoeste 0 -- -- 68
2020-04-01 11:00:00 13.4 5 Sudeste 10 Sur 0 -- -- 75
2020-04-01 10:00:00 10.5 5 Norte 7 Norte 0 -- -- 94
2020-04-01 09:00:00 7.7 5 Norte 9 Norte 0 -- -- 98
2020-04-01 08:00:00 5.9 3 Norte 8 Noroeste 0 -- -- 98
2020-04-01 07:00:00 6.9 0 Calma 6 Noroeste 0 -- -- 96
2020-04-01 06:00:00 7.8 0 Calma 6 Este 0 -- -- 96
2020-04-01 05:00:00 8.3 2 Sur 30 Noroeste 0.2 -- -- 94
2020-04-01 04:00:00 9.8 11 Sudeste 16 Sudeste 0 -- -- 94
2020-04-01 03:00:00 10.1 5 Sudeste 14 Este 0 -- -- 90
2020-04-01 02:00:00 10 8 Sudeste 23 Sudeste 0 -- -- 90
2020-04-01 01:00:00 10.4 14 Este 29 Este 0 -- -- 89
2020-04-01 00:00:00 10.6 17 Este 32 Este 0 -- -- 89
2020-03-31 23:00:00 11.1 10 Este 24 Este 0 -- -- 89
2020-03-31 22:00:00 11.3 12 Este 26 Este 0 -- -- 87
2020-03-31 21:00:00 12.2 11 Este 23 Este 0 -- -- 83
2020-03-31 20:00:00 13 11 Este 25 Este 0 -- -- 81
2020-03-31 19:00:00 14.4 10 Sudeste 17 Este 0 -- -- 75
2020-03-31 18:00:00 15.6 3 Sudoeste 14 Sur 0 -- -- 65
2020-03-31 17:00:00 15.4 4 Sudeste 14 Sudoeste 0 -- -- 68
2020-03-31 16:00:00 13.9 9 Sur 18 Sudeste 0.2 -- -- 73
2020-03-31 15:00:00 13.9 6 Este 16 Este 0 -- -- 75
2020-03-31 14:00:00 13.6 9 Este 21 Sudeste 0 -- -- 74
2020-03-31 13:00:00 12.8 12 Este 19 Este 0 -- -- 77
2020-03-31 12:00:00 10.3 8 Este 15 Este 0 -- -- 84
2020-03-31 11:00:00 8 4 Sudeste 9 Sudeste 0 -- -- 93
2020-03-31 10:00:00 6.8 0 Calma 22 Este 0 -- -- 95
2020-03-31 09:00:00 6.4 13 Sudeste 23 Este 0 -- -- 96
2020-03-31 08:00:00 6.7 13 Sudeste 26 Este 0 -- -- 93
2020-03-31 07:00:00 7.1 14 Sudeste 26 Sudeste 0.2 -- -- 92
2020-03-31 06:00:00 7.2 10 Este 26 Este 0 -- -- 92
2020-03-31 05:00:00 7.4 12 Este 24 Este 0 -- -- 91
2020-03-31 04:00:00 7.9 8 Este 17 Este 0 -- -- 92
2020-03-31 03:00:00 7.5 5 Oeste 25 Este 0 -- -- 92
2020-03-31 02:00:00 7.4 11 Este 29 Este 0 -- -- 93
2020-03-31 01:00:00 7.2 19 Este 43 Este 0 -- -- 94
2020-03-31 00:00:00 6.9 26 Este 39 Este 0.2 -- -- 92
2020-03-30 23:00:00 7 22 Este 36 Este 0 -- -- 92
2020-03-30 22:00:00 7.4 21 Este 33 Este 0 -- -- 91
2020-03-30 21:00:00 7.9 16 Este 33 Este 0 -- -- 89
2020-03-30 20:00:00 9 13 Este 25 Este 0.2 -- -- 88
2020-03-30 19:00:00 10.4 16 Este 30 Sudeste 0 -- -- 88
2020-03-30 18:00:00 11.6 17 Sudeste 34 Sudeste 0.2 -- -- 83
2020-03-30 17:00:00 12.7 10 Sudeste 25 Este 0.4 -- -- 81
2020-03-30 16:00:00 11.7 17 Este 25 Este 0.8 -- -- 89
2020-03-30 15:00:00 14.3 14 Sudeste 28 Sudeste 0 -- -- 72
2020-03-30 14:00:00 15.4 9 Sudeste 22 Sudeste 0 -- -- 62
2020-03-30 13:00:00 15.8 12 Este 21 Este 0 -- -- 57
2020-03-30 12:00:00 15.1 13 Sudeste 21 Este 0 -- -- 59
2020-03-30 11:00:00 11.1 4 Este 7 Este 0 -- -- 85
2020-03-30 10:00:00 8.5 0 Calma 3 Noroeste 0 -- -- 95
2020-03-30 09:00:00 7 3 Norte 5 Norte 0 -- -- 97
2020-03-30 08:00:00 6.1 0 Calma 3 Noroeste 0 -- -- 96
2020-03-30 07:00:00 5.8 3 Norte 6 Este 0 -- -- 96
2020-03-30 06:00:00 5.9 3 Este 9 Norte 0 -- -- 95
2020-03-30 05:00:00 6.4 3 Noroeste 8 Norte 0 -- -- 93
2020-03-30 04:00:00 7 4 Norte 9 Noroeste 0 -- -- 93
2020-03-30 03:00:00 7.3 5 Noroeste 8 Norte 0 -- -- 93
2020-03-30 02:00:00 7.9 0 Calma 6 Norte 0 -- -- 91
2020-03-30 01:00:00 8.5 0 Calma 6 Noroeste 0 -- -- 89
2020-03-30 00:00:00 9.8 0 Calma 8 Sudeste 0 -- -- 83
2020-03-29 23:00:00 11.3 2 Sudoeste 6 Oeste 0 -- -- 76
2020-03-29 22:00:00 12.5 2 Este 16 Oeste 0 -- -- 71
2020-03-29 21:00:00 13.9 9 Oeste 12 Oeste 0 -- -- 63
2020-03-29 20:00:00 17.4 0 Calma 9 Norte 0 -- -- 45
2020-03-29 19:00:00 18.8 9 Norte 15 Norte 0 -- -- 39
2020-03-29 18:00:00 19.1 6 Noroeste 17 Noroeste 0 -- -- 39
2020-03-29 17:00:00 18.9 8 Noroeste 20 Noroeste 0 -- -- 39
2020-03-29 16:00:00 18.8 8 Norte 21 Noroeste 0 -- -- 42
2020-03-29 15:00:00 17.9 8 Norte 21 Noroeste 0 -- -- 44
2020-03-29 14:00:00 16.9 12 Norte 23 Norte 0 -- -- 48
2020-03-29 13:00:00 16.1 10 Noroeste 23 Norte 0 -- -- 51
2020-03-29 12:00:00 14.6 12 Norte 21 Norte 0 -- -- 54
2020-03-29 11:00:00 12.2 2 Sur 6 Sur 0 -- -- 67
2020-03-29 10:00:00 7.7 0 Calma 4 Este 0 -- -- 89
2020-03-29 09:00:00 3.7 0 Calma 3 Este 0 -- -- 100
2020-03-29 08:00:00 1.2 0 Calma 4 Noroeste 0 -- -- 97
2020-03-29 07:00:00 1.8 0 Calma 5 Este 0 -- -- 97
2020-03-29 06:00:00 2 4 Norte 6 Norte 0 -- -- 97
2020-03-29 05:00:00 2 0 Calma 4 Nordeste 0 -- -- 96
2020-03-29 03:00:00 3.6 0 Calma 10 Norte 0 -- -- 95
2020-03-29 01:00:00 3.6 5 Noroeste 8 Noroeste 0 -- -- 95
2020-03-29 00:00:00 4.6 5 Noroeste 8 Noroeste 0 -- -- 94
2020-03-28 23:00:00 5.2 0 Calma 6 Norte 0 -- -- 92
2020-03-28 22:00:00 6 3 Norte 8 Norte 0 -- -- 90
2020-03-28 21:00:00 7 6 Norte 8 Noroeste 0 -- -- 87
2020-03-28 20:00:00 9.3 0 Calma 9 Este 0 -- -- 77
2020-03-28 19:00:00 12.6 7 Este 14 Este 0 -- -- 56
2020-03-28 18:00:00 12.7 10 Este 16 Este 0 -- -- 58
2020-03-28 17:00:00 13.1 7 Este 13 Este 0 -- -- 54
2020-03-28 16:00:00 13.4 4 Norte 13 Sudeste 0 -- -- 52
2020-03-28 15:00:00 13.4 6 Sudeste 14 Sudeste 0 -- -- 51
2020-03-28 14:00:00 13.5 2 Este 14 Este 0.2 -- -- 54
2020-03-28 13:00:00 12.9 7 Noroeste 13 Noroeste 0.4 -- -- 56
2020-03-28 12:00:00 11.5 7 Oeste 22 Noroeste 0.6 -- -- 63
2020-03-28 11:00:00 10.6 4 Noroeste 13 Noroeste 0.8 -- -- 73
2020-03-28 10:00:00 8.7 4 Norte 10 Norte 0.6 -- -- 75
2020-03-28 09:00:00 6.9 4 Norte 12 Noroeste 0.4 -- -- 91
2020-03-28 08:00:00 4.7 4 Noroeste 9 Noroeste 0.6 -- -- 96
2020-03-28 07:00:00 4.9 4 Oeste 9 Oeste 0.6 -- -- 97
2020-03-28 06:00:00 5.2 6 Sudoeste 13 Sudoeste 0.6 -- -- 96
2020-03-28 05:00:00 5.5 4 Sudoeste 9 Sudoeste 0.8 -- -- 96
2020-03-28 04:00:00 5.4 0 Calma 10 Noroeste 0.8 -- -- 95
2020-03-28 03:00:00 5.5 4 Norte 14 Este 0.6 -- -- 94
2020-03-28 02:00:00 6 6 Este 24 Sudeste 0.6 -- -- 94
2020-03-28 01:00:00 6.4 5 Este 19 Este 0.4 -- -- 94
2020-03-28 00:00:00 6.2 3 Sudeste 9 Este 0 -- -- 95
2020-03-27 23:00:00 6.2 3 Sudeste 7 Sudeste 0.4 -- -- 94
2020-03-27 22:00:00 6.4 2 Sur 10 Este 0.6 -- -- 92
2020-03-27 21:00:00 6.7 3 Este 18 Este 0 -- -- 86
2020-03-27 20:00:00 6.7 9 Este 25 Este 0 -- -- 84
2020-03-27 19:00:00 6.6 13 Este 25 Este 0 -- -- 85
2020-03-27 18:00:00 6.7 14 Este 28 Este 0 -- -- 84
2020-03-27 17:00:00 6.7 13 Este 26 Este 0 -- -- 82
2020-03-27 16:00:00 6.5 16 Este 27 Este 0 -- -- 84
2020-03-27 15:00:00 5.9 13 Este 31 Este 0 -- -- 88
2020-03-27 14:00:00 5.8 17 Este 28 Este 0.2 -- -- 91
2020-03-27 13:00:00 6.1 9 Este 17 Este 0.2 -- -- 88
2020-03-27 12:00:00 5.8 4 Nordeste 13 Este 0 -- -- 90
2020-03-27 11:00:00 5.6 9 Este 19 Este 0.8 -- -- 92
2020-03-27 10:00:00 5.8 7 Este 19 Este 0.8 -- -- 92
2020-03-27 09:00:00 5.8 8 Sudeste 22 Sudeste 0.2 -- -- 90
2020-03-27 08:00:00 5.8 12 Este 22 Este 0 -- -- 88
2020-03-27 07:00:00 5.9 6 Este 21 Este 0.2 -- -- 87
2020-03-27 06:00:00 6.3 8 Este 21 Este 0 -- -- 83
2020-03-27 05:00:00 6.5 12 Este 22 Este 0 -- -- 83
2020-03-27 04:00:00 6.8 8 Este 16 Este 0 -- -- 84
2020-03-27 03:00:00 7.1 9 Este 18 Este 0 -- -- 81
2020-03-27 02:00:00 7.3 3 Sudeste 18 Este 0 -- -- 80
2020-03-27 01:00:00 7.5 8 Este 20 Este 0 -- -- 74
2020-03-27 00:00:00 6.4 7 Este 16 Este 0 -- -- 80
2020-03-26 23:00:00 6.7 4 Sudeste 18 Este 0 -- -- 78
2020-03-26 22:00:00 7.9 8 Sudeste 27 Este 0 -- -- 73
2020-03-26 21:00:00 8.9 14 Este 31 Este 0 -- -- 70
2020-03-26 20:00:00 10.3 17 Este 31 Este 0 -- -- 67
2020-03-26 19:00:00 14.1 12 Nordeste 29 Norte 0 -- -- 36
2020-03-26 18:00:00 15.4 14 Norte 34 Noroeste 0 -- -- 36
2020-03-26 17:00:00 15.9 20 Noroeste 41 Norte 0 -- -- 33
2020-03-26 16:00:00 15.7 21 Norte 37 Norte 0 -- -- 38
2020-03-26 15:00:00 14.6 16 Noroeste 37 Noroeste 0 -- -- 45
2020-03-26 14:00:00 14.9 19 Norte 40 Noroeste 0 -- -- 42
2020-03-26 13:00:00 14.1 21 Norte 34 Nordeste 0 -- -- 44
2020-03-26 12:00:00 12.8 15 Norte 34 Norte 0 -- -- 56
2020-03-26 11:00:00 11.9 17 Norte 37 Noroeste 0 -- -- 68
2020-03-26 10:00:00 11.3 21 Norte 33 Noroeste 0 -- -- 74
2020-03-26 09:00:00 9 3 Noroeste 13 Norte 0 -- -- 90
2020-03-26 08:00:00 7.6 0 Calma 6 Noroeste 0 -- -- 98
2020-03-26 07:00:00 6.4 3 Noroeste 4 Norte 0 -- -- 97
2020-03-26 06:00:00 6.9 0 Calma 4 Oeste 0 -- -- 96
2020-03-26 05:00:00 7.3 0 Calma 5 Sur 0 -- -- 97
2020-03-26 04:00:00 7.3 4 Sudoeste 7 Sur 0 -- -- 97
2020-03-26 03:00:00 7.2 2 Sudoeste 9 Oeste 0 -- -- 97
2020-03-26 02:00:00 7.4 0 Calma 4 Sur 0 -- -- 97
2020-03-26 01:00:00 7.4 2 Este 9 Este 0 -- -- 96
2020-03-26 00:00:00 7.3 0 Calma 9 Sudeste 0.4 -- -- 95
2020-03-25 23:00:00 7.3 5 Este 9 Este 0 -- -- 95
2020-03-25 22:00:00 7.1 3 Nordeste 12 Sudeste 0 -- -- 94
2020-03-25 21:00:00 7.4 11 Sudeste 23 Sudeste 2.4 -- -- 92
2020-03-25 20:00:00 8 10 Sudeste 27 Sudeste 3.2 -- -- 93
2020-03-25 19:00:00 10.6 5 Sur 21 Este 0 -- -- 76
2020-03-25 18:00:00 12.9 9 Sudoeste 18 Sudoeste 0 -- -- 66
2020-03-25 17:00:00 14.1 4 Sur 11 Sudoeste 0 -- -- 54
2020-03-25 16:00:00 13.1 9 Sudeste 17 Este 0 -- -- 60
2020-03-25 15:00:00 12.7 5 Sudeste 15 Sudeste 0 -- -- 63
2020-03-25 14:00:00 11.1 4 Este 14 Este 0 -- -- 65
2020-03-25 13:00:00 11.3 6 Nordeste 18 Sudeste 0 -- -- 66
2020-03-25 12:00:00 10.2 8 Sudeste 15 Este 0 -- -- 76
2020-03-25 11:00:00 9.4 7 Este 13 Este 0 -- -- 77
2020-03-25 10:00:00 8.4 4 Sudeste 6 Este 0 -- -- 83
2020-03-25 09:00:00 7.1 3 Este 6 Este 0 -- -- 93
2020-03-25 08:00:00 5.6 3 Norte 5 Noroeste 0 -- -- 96
2020-03-25 07:00:00 5.5 0 Calma 5 Norte 0 -- -- 95
2020-03-25 06:00:00 6.1 0 Calma 8 Nordeste 0.2 -- -- 94
2020-03-25 05:00:00 5.6 5 Norte 9 Norte 0 -- -- 94
2020-03-25 04:00:00 5.6 3 Norte 8 Este 0 -- -- 92
2020-03-25 03:00:00 6.2 2 Este 13 Nordeste 0 -- -- 87
2020-03-25 02:00:00 6.1 4 Nordeste 14 Este 0 -- -- 87
2020-03-25 01:00:00 7.2 10 Nordeste 22 Este 0 -- -- 81
2020-03-25 00:00:00 8 9 Nordeste 35 Nordeste 0 -- -- 80
2020-03-24 23:00:00 8.3 11 Este 33 Este 0 -- -- 79
2020-03-24 22:00:00 8.9 19 Nordeste 41 Este 0 -- -- 76
2020-03-24 21:00:00 8.8 13 Nordeste 30 Nordeste 0 -- -- 83
2020-03-24 20:00:00 9.1 16 Nordeste 33 Nordeste 0 -- -- 87
2020-03-24 19:00:00 9.3 10 Nordeste 31 Nordeste 0 -- -- 87
2020-03-24 18:00:00 9.9 19 Este 44 Este 0 -- -- 86
2020-03-24 17:00:00 9.7 21 Este 42 Este 0 -- -- 89
2020-03-24 16:00:00 10.1 21 Este 36 Este 0.2 -- -- 91
2020-03-24 15:00:00 10.5 15 Este 26 Este 0.2 -- -- 91
2020-03-24 14:00:00 10.6 12 Este 33 Este 0.2 -- -- 92
2020-03-24 13:00:00 10.7 17 Este 33 Este 2 -- -- 92
2020-03-24 12:00:00 10.2 13 Este 31 Este 2.6 -- -- 95
2020-03-24 11:00:00 10 16 Este 30 Este 1.6 -- -- 92
2020-03-24 10:00:00 9.7 8 Nordeste 30 Este 2.2 -- -- 92
2020-03-24 09:00:00 9.5 19 Este 40 Este 1.4 -- -- 92
2020-03-24 08:00:00 9.3 17 Este 34 Este 2.2 -- -- 95
2020-03-24 07:00:00 9.2 11 Este 19 Este 1 -- -- 96
2020-03-24 06:00:00 9.2 9 Este 22 Este 2.6 -- -- 95
2020-03-24 05:00:00 8.9 4 Este 18 Sudeste 4.2 -- -- 97
2020-03-24 04:00:00 8.9 5 Sudoeste 10 Sur 6.4 -- -- 97
2020-03-24 03:00:00 9.1 0 Calma 6 Nordeste 3.6 -- -- 96
2020-03-24 02:00:00 9.4 2 Nordeste 8 Sudeste 1.8 -- -- 94
2020-03-24 01:00:00 9.7 5 Sudeste 11 Sudeste 1.6 -- -- 92
2020-03-24 00:00:00 9.9 3 Sudeste 15 Este 0.6 -- -- 91
2020-03-23 23:00:00 10.4 7 Nordeste 17 Este 0 -- -- 92
2020-03-23 22:00:00 10.5 6 Este 13 Este 0.8 -- -- 93
2020-03-23 21:00:00 10.7 0 Calma 21 Este 0.2 -- -- 92
2020-03-23 20:00:00 11 12 Este 23 Este 0.4 -- -- 91
2020-03-23 19:00:00 11.7 14 Sudeste 31 Este 0.2 -- -- 86
2020-03-23 18:00:00 12.7 18 Sudeste 33 Sudeste 0 -- -- 74
2020-03-23 17:00:00 14 19 Sudeste 39 Este 0 -- -- 66
2020-03-23 16:00:00 14.4 18 Este 30 Sudeste 0 -- -- 65
2020-03-23 15:00:00 14.5 16 Este 32 Este 0 -- -- 68
2020-03-23 14:00:00 13.3 13 Este 23 Nordeste 0 -- -- 73
2020-03-23 13:00:00 10.5 9 Este 25 Sudeste 0.6 -- -- 86
2020-03-23 12:00:00 11.4 18 Sudeste 28 Sudeste 0 -- -- 80
2020-03-23 11:00:00 12.2 12 Sudeste 26 Sudeste 0 -- -- 81
2020-03-23 10:00:00 12 8 Sudeste 13 Este 0 -- -- 83
2020-03-23 09:00:00 10.6 0 Calma 4 Este 0 -- -- 94
2020-03-23 08:00:00 8.5 0 Calma 6 Sudeste 0 -- -- 97
2020-03-23 07:00:00 8.9 6 Sudeste 13 Este 0 -- -- 95
2020-03-23 06:00:00 8.8 4 Sudeste 10 Sudeste 0 -- -- 95
2020-03-23 05:00:00 8.7 0 Calma 4 Este 0 -- -- 96
2020-03-23 04:00:00 8.6 0 Calma 9 Sudeste 0 -- -- 95
2020-03-23 03:00:00 8.5 0 Calma 8 Sudeste 0 -- -- 96
2020-03-23 02:00:00 8.2 0 Calma 5 Este 0 -- -- 96
2020-03-23 01:00:00 8.3 2 Noroeste 4 Noroeste 0 -- -- 96
2020-03-23 00:00:00 8.5 4 Sudeste 7 Sudeste 0 -- -- 95
2020-03-22 23:00:00 8.7 0 Calma 3 Sudeste 0 -- -- 93
2020-03-22 22:00:00 8.9 0 Calma 9 Este 0 -- -- 91
2020-03-22 21:00:00 9.1 0 Calma 10 Este 0 -- -- 90
2020-03-22 20:00:00 9.2 5 Este 10 Sudeste 0 -- -- 89
2020-03-22 19:00:00 9.7 6 Este 14 Este 0 -- -- 87
2020-03-22 18:00:00 10.2 4 Sur 19 Sudeste 0 -- -- 87
2020-03-22 17:00:00 10.3 3 Sudeste 10 Sur 0.2 -- -- 89
2020-03-22 16:00:00 9.8 8 Este 20 Este 0.2 -- -- 94
2020-03-22 15:00:00 9.6 0 Calma 16 Oeste 1.4 -- -- 94
2020-03-22 14:00:00 10.7 13 Sudoeste 22 Sudoeste 0 -- -- 87
2020-03-22 13:00:00 11.4 8 Sudoeste 18 Sudoeste 0 -- -- 87
2020-03-22 12:00:00 11.6 10 Sudoeste 18 Este 0 -- -- 85
2020-03-22 11:00:00 10.9 10 Este 16 Sudeste 0 -- -- 88
2020-03-22 10:00:00 9 6 Este 10 Este 0 -- -- 99
2020-03-22 09:00:00 7.7 0 Calma 3 Nordeste 0 -- -- 100
2020-03-22 08:00:00 7.1 0 Calma 4 Oeste 0 -- -- 100
2020-03-22 07:00:00 5.8 2 Noroeste 4 Nordeste 0 -- -- 99
2020-03-22 06:00:00 4.8 2 Noroeste 7 Norte 0 -- -- 99
2020-03-22 05:00:00 4.3 0 Calma 5 Norte 0 -- -- 98
2020-03-22 04:00:00 5.4 0 Calma 4 Norte 0 -- -- 98
2020-03-22 03:00:00 5.5 0 Calma 6 Norte 0 -- -- 98
2020-03-22 02:00:00 5.7 4 Norte 9 Norte 0 -- -- 98
2020-03-22 01:00:00 5.4 3 Norte 5 Noroeste 0 -- -- 97
2020-03-22 00:00:00 6 3 Noroeste 5 Noroeste 0 -- -- 96
2020-03-21 23:00:00 7.2 2 Este 6 Este 0.2 -- -- 96
2020-03-21 22:00:00 7.6 0 Calma 6 Nordeste 0.4 -- -- 96
2020-03-21 21:00:00 7.9 0 Calma 4 Oeste 0 -- -- 95
2020-03-21 20:00:00 7.6 0 Calma 14 Noroeste 0 -- -- 94
2020-03-21 19:00:00 7.8 7 Oeste 21 Nordeste 2.2 -- -- 92
2020-03-21 18:00:00 8 4 Norte 13 Norte 2.2 -- -- 93
2020-03-21 17:00:00 8.3 6 Oeste 29 Oeste 5 -- -- 94
2020-03-21 16:00:00 8.8 18 Oeste 32 Sudoeste 6.4 -- -- 93
2020-03-21 15:00:00 11.1 3 Sudeste 19 Sudeste 0.6 -- -- 92
2020-03-21 14:00:00 12.3 8 Este 17 Este 0 -- -- 83
2020-03-21 13:00:00 12.6 9 Este 18 Este 0 -- -- 76
2020-03-21 12:00:00 13.2 10 Este 19 Este 0 -- -- 72
2020-03-21 11:00:00 13 11 Sudeste 24 Sudeste 0 -- -- 72
2020-03-21 10:00:00 12 14 Sudeste 22 Sudeste 0 -- -- 78
2020-03-21 09:00:00 10.1 3 Este 8 Este 0 -- -- 87
2020-03-21 08:00:00 9.6 4 Sudeste 9 Sudeste 0 -- -- 89
2020-03-21 07:00:00 9.6 3 Sur 7 Sudeste 0 -- -- 89
2020-03-21 06:00:00 9.8 0 Calma 12 Este 0 -- -- 88
2020-03-21 05:00:00 9.9 4 Sudeste 15 Este 0 -- -- 88
2020-03-21 04:00:00 9.8 8 Este 19 Este 0 -- -- 91
2020-03-21 03:00:00 9.9 0 Calma 13 Sudeste 0 -- -- 91
2020-03-21 02:00:00 10 2 Sudeste 9 Sudeste 0 -- -- 91
2020-03-21 01:00:00 10.3 2 Sudeste 10 Sudeste 0 -- -- 88
2020-03-21 00:00:00 10.3 2 Nordeste 8 Este 0 -- -- 88
2020-03-20 23:00:00 10.4 4 Sudeste 8 Sudeste 0 -- -- 86
2020-03-20 22:00:00 10.5 5 Sudeste 16 Sudeste 0 -- -- 84
2020-03-20 21:00:00 10.8 9 Este 22 Este 0 -- -- 82
2020-03-20 20:00:00 11.3 12 Este 23 Este 0 -- -- 78
2020-03-20 19:00:00 11.7 13 Este 31 Este 0 -- -- 75
2020-03-20 18:00:00 12.1 14 Este 31 Este 0 -- -- 74
2020-03-20 17:00:00 13.1 22 Este 34 Este 0 -- -- 71
2020-03-20 16:00:00 13.5 13 Este 20 Este 0 -- -- 68
2020-03-20 15:00:00 12.4 4 Sur 17 Nordeste 0 -- -- 76
2020-03-20 14:00:00 13 11 Este 19 Este 0 -- -- 69
2020-03-20 13:00:00 13.1 12 Este 18 Este 0 -- -- 71
2020-03-20 12:00:00 13 4 Sur 19 Este 0 -- -- 70
2020-03-20 11:00:00 12.8 8 Sudeste 19 Este 0 -- -- 67
2020-03-20 10:00:00 11.5 14 Este 25 Este 0 -- -- 76
2020-03-20 09:00:00 10 8 Sudeste 13 Sudeste 0 -- -- 87
2020-03-20 08:00:00 7.7 0 Calma 4 Norte 0 -- -- 96
2020-03-20 07:00:00 7.1 3 Norte 5 Norte 0 -- -- 97
2020-03-20 06:00:00 6.7 0 Calma 5 Sudeste 0 -- -- 97
2020-03-20 05:00:00 5.8 3 Norte 6 Norte 0 -- -- 96
2020-03-20 04:00:00 5.5 2 Norte 4 Noroeste 0 -- -- 92
2020-03-20 03:00:00 7.4 0 Calma 6 Noroeste 0 -- -- 91
2020-03-20 02:00:00 8.7 0 Calma 6 Oeste 0 -- -- 88
2020-03-20 01:00:00 9 0 Calma 6 Sudeste 0 -- -- 86
2020-03-20 00:00:00 9.7 3 Este 18 Este 0 -- -- 85
2020-03-19 23:00:00 10.8 9 Este 19 Este 0 -- -- 80
2020-03-19 22:00:00 11.1 12 Este 20 Este 0 -- -- 80
2020-03-19 21:00:00 11.6 11 Este 18 Este 0 -- -- 82
2020-03-19 20:00:00 11.7 6 Este 24 Este 0 -- -- 81
2020-03-19 19:00:00 12.2 14 Este 27 Este 0 -- -- 78
2020-03-19 18:00:00 13.4 12 Este 26 Este 0 -- -- 73
2020-03-19 17:00:00 14 15 Este 26 Este 0 -- -- 71
2020-03-19 16:00:00 14.6 13 Este 23 Este 0 -- -- 69
2020-03-19 15:00:00 15 12 Este 20 Este 0 -- -- 64
2020-03-19 14:00:00 15.5 6 Este 17 Sudeste 0 -- -- 61
2020-03-19 13:00:00 14.5 7 Este 19 Este 0 -- -- 63
2020-03-19 12:00:00 13.5 11 Este 21 Este 0 -- -- 71
2020-03-19 11:00:00 12.6 10 Este 21 Este 0 -- -- 74
2020-03-19 10:00:00 12 12 Este 18 Este 0 -- -- 81
2020-03-19 09:00:00 9.6 2 Sudoeste 4 Sudoeste 0 -- -- 92
2020-03-19 08:00:00 8.6 0 Calma 3 Sudoeste 0 -- -- 95
2020-03-19 07:00:00 8.2 0 Calma 3 Oeste 0 -- -- 95
2020-03-19 06:00:00 8.1 0 Calma 4 Noroeste 0 -- -- 95
2020-03-19 05:00:00 7.9 0 Calma 5 Norte 0 -- -- 96
2020-03-19 04:00:00 7.3 0 Calma 6 Noroeste 0 -- -- 96
2020-03-19 03:00:00 7 3 Noroeste 5 Noroeste 0 -- -- 96
2020-03-19 02:00:00 6.5 0 Calma 6 Oeste 0 -- -- 95
2020-03-19 01:00:00 6.4 0 Calma 3 Norte 0 -- -- 94
2020-03-19 00:00:00 6.7 2 Noroeste 4 Norte 0 -- -- 92
2020-03-18 23:00:00 8.2 0 Calma 17 Este 0 -- -- 86
2020-03-18 22:00:00 9.8 0 Calma 25 Nordeste 0 -- -- 81
2020-03-18 21:00:00 10.5 6 Nordeste 17 Norte 0 -- -- 77
2020-03-18 20:00:00 11.3 3 Nordeste 24 Nordeste 0 -- -- 72
2020-03-18 19:00:00 12.5 10 Este 31 Este 0 -- -- 70
2020-03-18 18:00:00 13.9 19 Este 31 Este 0 -- -- 63
2020-03-18 17:00:00 15 19 Este 33 Este 0 -- -- 62
2020-03-18 16:00:00 15.4 22 Este 35 Este 0 -- -- 61
2020-03-18 15:00:00 15.4 19 Este 34 Este 0 -- -- 62
2020-03-18 14:00:00 15.2 22 Este 39 Este 0 -- -- 64
2020-03-18 13:00:00 14.7 23 Este 39 Este 0 -- -- 67
2020-03-18 12:00:00 14.1 18 Este 42 Este 0 -- -- 69
2020-03-18 11:00:00 12.4 24 Este 39 Este 0 -- -- 74
2020-03-18 10:00:00 11.9 19 Este 31 Este 0 -- -- 80
2020-03-18 09:00:00 11.7 13 Este 24 Este 0 -- -- 83
2020-03-18 08:00:00 10.9 11 Este 20 Este 0 -- -- 85
2020-03-18 07:00:00 10.6 7 Este 16 Sudeste 0 -- -- 85
2020-03-18 06:00:00 10.7 9 Este 24 Este 0 -- -- 85
2020-03-18 05:00:00 10.7 16 Este 28 Este 0 -- -- 84
2020-03-18 04:00:00 10.9 14 Este 36 Este 0 -- -- 83
2020-03-18 03:00:00 11.3 15 Este 32 Este 0 -- -- 83
2020-03-18 02:00:00 11.6 21 Este 40 Este 0 -- -- 80
2020-03-18 01:00:00 11.7 18 Este 33 Este 0 -- -- 82
2020-03-18 00:00:00 11.9 17 Este 33 Este 0 -- -- 81
2020-03-17 23:00:00 12.1 14 Este 39 Este 0 -- -- 81
2020-03-17 22:00:00 12.4 20 Este 50 Este 0 -- -- 82
2020-03-17 21:00:00 12.7 17 Este 46 Este 0 -- -- 85
2020-03-17 20:00:00 12.9 27 Este 48 Este 0 -- -- 87
2020-03-17 19:00:00 12.9 24 Este 53 Este 0 -- -- 86
2020-03-17 18:00:00 13 24 Este 45 Este 0 -- -- 87
2020-03-17 17:00:00 12.4 15 Este 31 Este 0 -- -- 90
2020-03-17 16:00:00 12.1 13 Este 31 Este 0 -- -- 87
2020-03-17 15:00:00 13 17 Este 30 Este 0 -- -- 81
2020-03-17 14:00:00 11.8 18 Este 32 Este 0 -- -- 81
2020-03-17 13:00:00 11.6 17 Este 27 Sudeste 0 -- -- 84
2020-03-17 12:00:00 11.1 11 Este 21 Este 0 -- -- 82
2020-03-17 11:00:00 10.7 12 Este 21 Este 0 -- -- 83
2020-03-17 10:00:00 10.6 11 Este 19 Este 0 -- -- 83
2020-03-17 09:00:00 9.6 6 Este 12 Sudeste 0 -- -- 84
2020-03-17 08:00:00 8.2 6 Este 11 Este 0 -- -- 88
2020-03-17 07:00:00 7.2 9 Sudeste 13 Sudeste 0 -- -- 94
2020-03-17 06:00:00 5.5 2 Nordeste 9 Sudeste 0 -- -- 97
2020-03-17 05:00:00 5.5 0 Calma 4 Norte 0 -- -- 96
2020-03-17 04:00:00 5.5 0 Calma 3 Noroeste 0 -- -- 95
2020-03-17 03:00:00 5.6 0 Calma 4 Nordeste 0 -- -- 92
2020-03-17 02:00:00 6 0 Calma 4 Oeste 0 -- -- 91
2020-03-17 01:00:00 5.9 2 Este 6 Sudeste 0 -- -- 91
2020-03-17 00:00:00 5.6 3 Este 7 Sudeste 0 -- -- 89
2020-03-16 23:00:00 5.3 0 Calma 8 Este 0 -- -- 91
2020-03-16 22:00:00 5.4 6 Este 13 Sudeste 0 -- -- 90
2020-03-16 21:00:00 5.4 9 Sudeste 22 Sudeste 0.2 -- -- 91
2020-03-16 20:00:00 5.1 15 Sudeste 26 Sudeste 0 -- -- 92
2020-03-16 19:00:00 5.5 12 Sudeste 23 Sudeste 0 -- -- 88
2020-03-16 18:00:00 6.1 12 Sudeste 21 Sudeste 0 -- -- 88
2020-03-16 17:00:00 6.8 5 Este 17 Sudeste 0 -- -- 83
2020-03-16 16:00:00 5.9 4 Norte 14 Norte 0.8 -- -- 90
2020-03-16 15:00:00 5 10 Norte 18 Norte 1.6 -- -- 89
2020-03-16 14:00:00 6.5 6 Nordeste 20 Norte 1.4 -- -- 89
2020-03-16 13:00:00 5.7 9 Norte 18 Noroeste 1.4 -- -- 87
2020-03-16 12:00:00 6.7 8 Norte 27 Norte 0.2 -- -- 90
2020-03-16 11:00:00 6.1 15 Norte 46 Norte 2.2 -- -- 91
2020-03-16 10:00:00 12.4 4 Sur 18 Sudoeste 0 -- -- 90
2020-03-16 09:00:00 11.9 2 Este 19 Sudeste 0 -- -- 91
2020-03-16 08:00:00 11.1 13 Sudeste 22 Sudeste 0 -- -- 95
2020-03-16 07:00:00 10.6 8 Sudeste 14 Sudeste 0 -- -- 96
2020-03-16 06:00:00 9.9 4 Este 7 Este 0 -- -- 95
2020-03-16 05:00:00 10.5 0 Calma 7 Sudeste 0 -- -- 95
2020-03-16 04:00:00 10.7 4 Este 10 Este 0 -- -- 94
2020-03-16 03:00:00 11.1 7 Este 10 Este 0.4 -- -- 93
2020-03-16 02:00:00 11.2 6 Este 19 Sudeste 1 -- -- 92
2020-03-16 01:00:00 11.8 12 Sudeste 19 Este 0 -- -- 85
2020-03-16 00:00:00 11.9 8 Sudeste 17 Este 0 -- -- 82
2020-03-15 23:00:00 12 4 Este 14 Este 0 -- -- 79
2020-03-15 22:00:00 12.4 4 Este 20 Este 0 -- -- 75
2020-03-15 21:00:00 12.5 14 Este 26 Sudeste 0 -- -- 76
2020-03-15 20:00:00 13.3 10 Este 19 Sudeste 0 -- -- 73
2020-03-15 19:00:00 14.1 11 Sudeste 28 Sudeste 0 -- -- 68
2020-03-15 18:00:00 15.9 18 Sudeste 33 Sudeste 0 -- -- 59
2020-03-15 17:00:00 18.9 18 Sudeste 34 Sudeste 0 -- -- 51
2020-03-15 16:00:00 20.2 12 Sudeste 30 Sur 0 -- -- 47
2020-03-15 15:00:00 20.2 12 Sudeste 30 Sudeste 0 -- -- 45
2020-03-15 14:00:00 20.2 5 Sudoeste 25 Sudeste 0 -- -- 46
2020-03-15 13:00:00 19.4 12 Sudoeste 19 Sudoeste 0 -- -- 47
2020-03-15 12:00:00 17.5 8 Sudoeste 16 Oeste 0 -- -- 50
2020-03-15 11:00:00 15.5 4 Sudeste 10 Sudeste 0 -- -- 60
2020-03-15 10:00:00 12.9 3 Este 10 Noroeste 0 -- -- 76
2020-03-15 09:00:00 11.4 2 Sudeste 9 Este 0 -- -- 84
2020-03-15 08:00:00 10.2 5 Sudeste 8 Este 0 -- -- 90
2020-03-15 07:00:00 10 0 Calma 2 Sudeste 0 -- -- 93
2020-03-15 06:00:00 9.8 0 Calma 2 Nordeste 0 -- -- 94
2020-03-15 05:00:00 9.5 0 Calma 4 Este 0 -- -- 94
2020-03-15 04:00:00 9.1 2 Nordeste 6 Sudeste 0 -- -- 95
2020-03-15 03:00:00 8.7 3 Noroeste 6 Noroeste 0 -- -- 95
2020-03-15 02:00:00 7.7 4 Noroeste 6 Noroeste 0 -- -- 92
2020-03-15 01:00:00 9 0 Calma 8 Oeste 0 -- -- 89
2020-03-15 00:00:00 11.1 0 Calma 7 Sudoeste 0 -- -- 88
2020-03-14 23:00:00 11.8 2 Sur 11 Sur 0 -- -- 87
2020-03-14 22:00:00 12.8 4 Sur 12 Sur 0 -- -- 81
2020-03-14 21:00:00 14.4 0 Calma 9 Nordeste 0 -- -- 72
2020-03-14 20:00:00 15.2 3 Noroeste 6 Noroeste 0 -- -- 68
2020-03-14 19:00:00 17.6 4 Sudeste 16 Sudoeste 0 -- -- 61
2020-03-14 18:00:00 20.5 10 Sudoeste 21 Sur 0 -- -- 46
2020-03-14 17:00:00 21.3 10 Sur 27 Oeste 0 -- -- 44
2020-03-14 16:00:00 21.9 8 Sudoeste 15 Sudeste 0 -- -- 47
2020-03-14 15:00:00 21.4 6 Sudoeste 18 Sur 0 -- -- 48
2020-03-14 14:00:00 20.7 7 Sudoeste 15 Sur 0 -- -- 50
2020-03-14 13:00:00 19 6 Sur 13 Sur 0 -- -- 56
2020-03-14 12:00:00 17.5 6 Sudoeste 14 Sudoeste 0 -- -- 60
2020-03-14 11:00:00 16.4 5 Sudoeste 12 Sur 0 -- -- 59
2020-03-14 10:00:00 14.1 2 Este 6 Este 0 -- -- 66
2020-03-14 09:00:00 10.3 0 Calma 6 Norte 0 -- -- 77
2020-03-14 08:00:00 6.2 4 Norte 8 Norte 0 -- -- 90
2020-03-14 07:00:00 5.9 3 Norte 7 Norte 0 -- -- 88
2020-03-14 06:00:00 6.7 0 Calma 5 Norte 0 -- -- 85
2020-03-14 05:00:00 7.5 2 Norte 5 Noroeste 0 -- -- 83
2020-03-14 04:00:00 8.4 4 Norte 6 Norte 0 -- -- 78
2020-03-14 03:00:00 9.3 0 Calma 4 Norte 0 -- -- 75
2020-03-14 02:00:00 10.2 0 Calma 5 Oeste 0 -- -- 72
2020-03-14 01:00:00 10.4 0 Calma 5 Noroeste 0 -- -- 70
2020-03-14 00:00:00 10.8 0 Calma 4 Sudeste 0 -- -- 65
2020-03-13 23:00:00 12.7 0 Calma 7 Este 0 -- -- 57
2020-03-13 22:00:00 13.7 6 Este 19 Este 0 -- -- 54
2020-03-13 21:00:00 14.5 11 Este 16 Este 0 -- -- 52
2020-03-13 20:00:00 15.2 5 Nordeste 17 Sudeste 0 -- -- 52
2020-03-13 19:00:00 16.7 13 Sudeste 26 Sudeste 0 -- -- 50
2020-03-13 18:00:00 18.7 15 Sudeste 27 Sudeste 0 -- -- 46
2020-03-13 17:00:00 20.3 13 Sudeste 26 Sudeste 0 -- -- 46
2020-03-13 16:00:00 21.8 16 Sudeste 28 Sudeste 0 -- -- 42
2020-03-13 15:00:00 21.1 12 Este 26 Este 0 -- -- 48
2020-03-13 14:00:00 20.4 12 Este 23 Sudeste 0 -- -- 52
2020-03-13 13:00:00 18.3 14 Este 26 Este 0 -- -- 59
2020-03-13 12:00:00 17.4 16 Sudeste 26 Sudeste 0 -- -- 62
2020-03-13 11:00:00 15.6 13 Sudeste 26 Este 0 -- -- 69
2020-03-13 10:00:00 13.5 13 Sudeste 23 Sudeste 0 -- -- 77
2020-03-13 09:00:00 11.7 14 Sudeste 26 Sudeste 0 -- -- 80
2020-03-13 08:00:00 10.2 6 Este 15 Sudeste 0 -- -- 82
2020-03-13 07:00:00 9.5 8 Este 12 Este 0 -- -- 79
2020-03-13 06:00:00 7.7 4 Nordeste 8 Este 0 -- -- 83
2020-03-13 05:00:00 8.1 3 Norte 5 Norte 0 -- -- 80
2020-03-13 04:00:00 8.9 3 Nordeste 10 Norte 0 -- -- 77
2020-03-13 03:00:00 9.2 3 Norte 10 Norte 0 -- -- 76
2020-03-13 02:00:00 10.3 5 Norte 9 Norte 0 -- -- 73
2020-03-13 01:00:00 11 5 Nordeste 9 Norte 0 -- -- 71
2020-03-13 00:00:00 11.5 6 Norte 9 Norte 0 -- -- 69
2020-03-12 23:00:00 12.3 5 Norte 8 Noroeste 0 -- -- 66
2020-03-12 22:00:00 13.2 4 Noroeste 5 Noroeste 0 -- -- 60
2020-03-12 21:00:00 15.6 0 Calma 6 Este 0 -- -- 54
2020-03-12 20:00:00 19.7 3 Este 10 Este 0 -- -- 43
2020-03-12 19:00:00 22.4 6 Este 21 Sudeste 0 -- -- 39
2020-03-12 18:00:00 24.3 12 Sudeste 22 Sudeste 0 -- -- 34
2020-03-12 17:00:00 27 6 Sur 17 Oeste 0 -- -- 29
2020-03-12 16:00:00 27.3 9 Sudoeste 18 Sudoeste 0 -- -- 29
2020-03-12 15:00:00 26.9 10 Sudoeste 20 Oeste 0 -- -- 29
2020-03-12 14:00:00 25.7 12 Sudoeste 23 Oeste 0 -- -- 30
2020-03-12 13:00:00 24.8 8 Oeste 18 Sudoeste 0 -- -- 36
2020-03-12 12:00:00 23.4 12 Sudoeste 19 Sudoeste 0 -- -- 40
2020-03-12 11:00:00 20.4 4 Sur 8 Sudeste 0 -- -- 48
2020-03-12 10:00:00 16.3 4 Sudeste 6 Sudeste 0 -- -- 60
2020-03-12 09:00:00 12.1 3 Este 5 Sudeste 0 -- -- 74
2020-03-12 08:00:00 7.4 0 Calma 3 Noroeste 0 -- -- 90
2020-03-12 07:00:00 6.8 0 Calma 4 Norte 0 -- -- 87
2020-03-12 06:00:00 7.7 4 Noroeste 5 Noroeste 0 -- -- 84
2020-03-12 05:00:00 7.9 3 Norte 6 Norte 0 -- -- 84
2020-03-12 04:00:00 8.6 3 Norte 8 Norte 0 -- -- 81
2020-03-12 03:00:00 9.3 0 Calma 5 Norte 0 -- -- 80
2020-03-12 02:00:00 10.5 3 Norte 7 Norte 0 -- -- 77
2020-03-12 01:00:00 11 3 Noroeste 5 Noroeste 0 -- -- 75
2020-03-12 00:00:00 12 4 Norte 6 Norte 0 -- -- 72
2020-03-11 23:00:00 12.7 4 Noroeste 6 Noroeste 0 -- -- 70
2020-03-11 22:00:00 14.4 0 Calma 7 Noroeste 0 -- -- 65
2020-03-11 21:00:00 17 0 Calma 6 Nordeste 0 -- -- 58
2020-03-11 20:00:00 20.3 3 Norte 11 Nordeste 0 -- -- 51
2020-03-11 19:00:00 24.4 4 Nordeste 15 Oeste 0 -- -- 40
2020-03-11 18:00:00 28.8 10 Sudoeste 18 Oeste 0 -- -- 27
2020-03-11 17:00:00 29.2 5 Norte 22 Noroeste 0 -- -- 25
2020-03-11 16:00:00 28.7 10 Noroeste 19 Sudoeste 0 -- -- 26
2020-03-11 15:00:00 28.4 6 Sudoeste 17 Sur 0 -- -- 29
2020-03-11 14:00:00 27.3 8 Sudoeste 19 Sudoeste 0 -- -- 32
2020-03-11 13:00:00 26.2 8 Sudoeste 18 Sudoeste 0 -- -- 34
2020-03-11 12:00:00 24.3 8 Sudoeste 18 Sudoeste 0 -- -- 37
2020-03-11 11:00:00 22.4 6 Norte 14 Noroeste 0 -- -- 38
2020-03-11 10:00:00 18.6 3 Nordeste 5 Nordeste 0 -- -- 50
2020-03-11 09:00:00 11.7 2 Este 6 Este 0 -- -- 68
2020-03-11 08:00:00 8.1 0 Calma 10 Nordeste 0 -- -- 79
2020-03-11 07:00:00 8.2 5 Norte 10 Norte 0 -- -- 76
2020-03-11 06:00:00 8.6 3 Nordeste 8 Norte 0 -- -- 75
2020-03-11 05:00:00 7.9 3 Nordeste 8 Nordeste 0 -- -- 79
2020-03-11 04:00:00 8.8 2 Este 9 Norte 0 -- -- 75
2020-03-11 03:00:00 8.9 3 Sudoeste 8 Norte 0 -- -- 76
2020-03-11 02:00:00 10.4 6 Norte 13 Norte 0 -- -- 70
2020-03-11 01:00:00 9.9 2 Norte 8 Norte 0 -- -- 71
2020-03-11 00:00:00 9.9 5 Norte 8 Noroeste 0 -- -- 72
2020-03-10 23:00:00 10.7 5 Noroeste 8 Noroeste 0 -- -- 68
2020-03-10 22:00:00 12.9 4 Noroeste 17 Sudoeste 0 -- -- 62
2020-03-10 21:00:00 15.6 12 Sudoeste 20 Sudoeste 0 -- -- 58
2020-03-10 20:00:00 17 7 Sudoeste 24 Sudoeste 0 -- -- 51
2020-03-10 19:00:00 20.3 8 Sudoeste 16 Oeste 0 -- -- 38
2020-03-10 18:00:00 23.7 7 Norte 17 Noroeste 0 -- -- 32
2020-03-10 17:00:00 23.6 8 Norte 17 Norte 0 -- -- 31
2020-03-10 16:00:00 22.6 9 Norte 22 Noroeste 0 -- -- 32
2020-03-10 15:00:00 22.8 12 Noroeste 22 Noroeste 0 -- -- 31
2020-03-10 14:00:00 22.3 9 Norte 23 Noroeste 0 -- -- 30
2020-03-10 13:00:00 21 4 Nordeste 20 Norte 0 -- -- 30
2020-03-10 12:00:00 19.9 8 Norte 19 Norte 0 -- -- 32
2020-03-10 11:00:00 16.8 10 Noroeste 21 Noroeste 0 -- -- 40
2020-03-10 10:00:00 14.2 7 Noroeste 13 Norte 0 -- -- 47
2020-03-10 09:00:00 11.5 4 Norte 13 Noroeste 0 -- -- 53
2020-03-10 08:00:00 9.9 3 Noroeste 12 Noroeste 0 -- -- 55
2020-03-10 07:00:00 8.1 3 Oeste 6 Oeste 0 -- -- 60
2020-03-10 06:00:00 9.6 5 Norte 15 Norte 0 -- -- 54
2020-03-10 05:00:00 9 3 Oeste 8 Norte 0 -- -- 55
2020-03-10 04:00:00 10.1 3 Sudeste 13 Norte 0 -- -- 51
2020-03-10 03:00:00 11.2 0 Calma 19 Norte 0 -- -- 46
2020-03-10 02:00:00 12 12 Norte 27 Norte 0 -- -- 44
2020-03-10 01:00:00 13.2 15 Norte 31 Norte 0 -- -- 41
2020-03-10 00:00:00 13.8 17 Norte 30 Noroeste 0 -- -- 41
2020-03-09 23:00:00 15.1 14 Norte 33 Noroeste 0 -- -- 38
2020-03-09 22:00:00 15.3 15 Noroeste 28 Norte 0 -- -- 39
2020-03-09 21:00:00 15.5 12 Noroeste 33 Noroeste 0 -- -- 38
2020-03-09 20:00:00 16.3 16 Noroeste 35 Noroeste 0 -- -- 36
2020-03-09 19:00:00 17.3 15 Noroeste 38 Noroeste 0 -- -- 34
2020-03-09 18:00:00 19.3 18 Norte 36 Norte 0 -- -- 29
2020-03-09 17:00:00 19.8 20 Norte 33 Norte 0 -- -- 29
2020-03-09 16:00:00 19.8 17 Norte 40 Noroeste 0 -- -- 29
2020-03-09 15:00:00 19.2 21 Noroeste 45 Norte 0 -- -- 30
2020-03-09 14:00:00 17.9 27 Noroeste 44 Noroeste 0 -- -- 36
2020-03-09 13:00:00 16.4 18 Noroeste 34 Noroeste 0 -- -- 43
2020-03-09 12:00:00 14.1 16 Noroeste 33 Norte 0 -- -- 54
2020-03-09 11:00:00 13.1 18 Noroeste 35 Noroeste 0 -- -- 58
2020-03-09 10:00:00 12.6 14 Norte 30 Noroeste 0 -- -- 59
2020-03-09 09:00:00 11.3 9 Norte 21 Norte 0 -- -- 65
2020-03-09 08:00:00 8.2 0 Calma 9 Sur 0 -- -- 75
2020-03-09 07:00:00 8.3 2 Oeste 10 Oeste 0 -- -- 73
2020-03-09 06:00:00 10.3 3 Sudoeste 32 Noroeste 0 -- -- 65
2020-03-09 05:00:00 11.2 13 Norte 28 Noroeste 0 -- -- 62
2020-03-09 04:00:00 9.3 0 Calma 12 Sudeste 0 -- -- 61
2020-03-09 03:00:00 11.1 2 Noroeste 11 Noroeste 0 -- -- 52
2020-03-09 02:00:00 10.4 4 Noroeste 10 Noroeste 0 -- -- 48
2020-03-09 01:00:00 12.2 2 Sur 22 Norte 0 -- -- 42
2020-03-09 00:00:00 14.6 9 Noroeste 17 Oeste 0 -- -- 36
2020-03-08 23:00:00 15.7 9 Noroeste 18 Noroeste 0 -- -- 36
2020-03-08 22:00:00 14.9 0 Calma 11 Noroeste 0 -- -- 40
2020-03-08 21:00:00 14.8 4 Noroeste 14 Noroeste 0 -- -- 38
2020-03-08 20:00:00 17.2 8 Noroeste 21 Noroeste 0 -- -- 30
2020-03-08 19:00:00 19 9 Norte 27 Noroeste 0 -- -- 28
2020-03-08 18:00:00 21.9 14 Noroeste 32 Noroeste 0 -- -- 22
2020-03-08 17:00:00 22 13 Norte 30 Noroeste 0 -- -- 27
2020-03-08 16:00:00 22.1 13 Noroeste 26 Nordeste 0 -- -- 26
2020-03-08 15:00:00 21.9 9 Oeste 31 Oeste 0 -- -- 27
2020-03-08 14:00:00 19.9 14 Noroeste 25 Noroeste 0 -- -- 31
2020-03-08 13:00:00 17.8 10 Norte 22 Norte 0 -- -- 35
2020-03-08 12:00:00 16.5 13 Norte 23 Noroeste 0 -- -- 41
2020-03-08 11:00:00 14.8 6 Norte 19 Noroeste 0 -- -- 48
2020-03-08 10:00:00 12.8 0 Calma 9 Sur 0 -- -- 52
2020-03-08 09:00:00 9.3 2 Oeste 17 Norte 0 -- -- 64
2020-03-08 08:00:00 5.9 4 Nordeste 13 Norte 0 -- -- 75
2020-03-08 07:00:00 3.9 5 Norte 9 Norte 0 -- -- 83
2020-03-08 06:00:00 5.8 6 Noroeste 10 Norte 0 -- -- 74
2020-03-08 05:00:00 6.1 3 Nordeste 11 Norte 0 -- -- 74
2020-03-08 04:00:00 4.2 3 Sur 6 Sudoeste 0 -- -- 79
2020-03-08 03:00:00 5.8 3 Sudoeste 8 Norte 0 -- -- 72
2020-03-08 02:00:00 6.6 4 Oeste 10 Oeste 0 -- -- 69
2020-03-08 01:00:00 9.6 4 Norte 14 Norte 0 -- -- 60
2020-03-08 00:00:00 10.8 7 Noroeste 23 Noroeste 0 -- -- 56
2020-03-07 23:00:00 9.4 2 Oeste 10 Norte 0 -- -- 61
2020-03-07 22:00:00 9.3 0 Calma 6 Noroeste 0 -- -- 60
2020-03-07 21:00:00 9.7 0 Calma 6 Oeste 0 -- -- 60
2020-03-07 20:00:00 12.9 4 Oeste 21 Noroeste 0 -- -- 49
2020-03-07 19:00:00 14.9 17 Noroeste 30 Noroeste 0 -- -- 43
2020-03-07 18:00:00 16.7 17 Noroeste 30 Oeste 0 -- -- 39
2020-03-07 17:00:00 16.6 18 Noroeste 36 Norte 0 -- -- 39
2020-03-07 16:00:00 16.4 19 Norte 37 Norte 0 -- -- 38
2020-03-07 15:00:00 15.8 19 Norte 39 Noroeste 0 -- -- 39
2020-03-07 14:00:00 14.3 19 Norte 42 Noroeste 0 -- -- 41
2020-03-07 13:00:00 14 23 Norte 41 Noroeste 0 -- -- 41
2020-03-07 12:00:00 12.1 21 Norte 44 Norte 0 -- -- 44
2020-03-07 11:00:00 10.5 22 Norte 43 Norte 0 -- -- 44
2020-03-07 10:00:00 8.4 23 Norte 42 Noroeste 0 -- -- 50
2020-03-07 09:00:00 7.3 20 Norte 45 Noroeste 0 -- -- 51
2020-03-07 08:00:00 5.8 20 Noroeste 45 Noroeste 0 -- -- 56
2020-03-07 07:00:00 6 22 Noroeste 46 Noroeste 0 -- -- 55
2020-03-07 06:00:00 6.9 14 Norte 31 Noroeste 0 -- -- 51
2020-03-07 05:00:00 6.5 11 Norte 22 Norte 0 -- -- 51
2020-03-07 04:00:00 6 7 Norte 22 Norte 0 -- -- 52
2020-03-07 03:00:00 5.7 4 Noroeste 15 Noroeste 0 -- -- 53
2020-03-07 02:00:00 6.7 8 Noroeste 15 Norte 0 -- -- 49
2020-03-07 01:00:00 7.6 5 Norte 22 Noroeste 0 -- -- 46
2020-03-07 00:00:00 8.5 6 Norte 25 Norte 0 -- -- 44
2020-03-06 23:00:00 9.2 10 Norte 25 Noroeste 0 -- -- 41
2020-03-06 22:00:00 9.8 8 Norte 27 Noroeste 0 -- -- 39
2020-03-06 21:00:00 10.8 17 Norte 47 Noroeste 0 -- -- 37
2020-03-06 20:00:00 11.5 25 Noroeste 48 Noroeste 0 -- -- 38
2020-03-06 19:00:00 11.9 20 Noroeste 59 Noroeste 0 -- -- 37
2020-03-06 18:00:00 12.8 30 Noroeste 53 Norte 0 -- -- 34
2020-03-06 17:00:00 13.8 30 Noroeste 60 Noroeste 0 -- -- 33
2020-03-06 16:00:00 14 33 Noroeste 62 Norte 0 -- -- 33
2020-03-06 15:00:00 13.6 29 Noroeste 61 Noroeste 0 -- -- 38
2020-03-06 14:00:00 12.7 33 Noroeste 59 Noroeste 0.4 -- -- 43
2020-03-06 13:00:00 10.9 28 Noroeste 56 Oeste 0.2 -- -- 67
2020-03-06 12:00:00 11 24 Noroeste 50 Noroeste 0 -- -- 61
2020-03-06 11:00:00 10.4 29 Noroeste 58 Oeste 0 -- -- 61
2020-03-06 10:00:00 10.6 27 Noroeste 50 Noroeste 0 -- -- 56
2020-03-06 09:00:00 9.8 20 Noroeste 32 Noroeste 0 -- -- 59
2020-03-06 08:00:00 6.5 6 Noroeste 10 Noroeste 0 -- -- 72
2020-03-06 07:00:00 7.6 3 Noroeste 16 Noroeste 0 -- -- 67
2020-03-06 06:00:00 8.7 8 Noroeste 28 Noroeste 0 -- -- 64
2020-03-06 05:00:00 9.6 14 Noroeste 40 Noroeste 0 -- -- 64
2020-03-06 04:00:00 10.7 22 Noroeste 40 Oeste 0 -- -- 60
2020-03-06 03:00:00 11.1 21 Noroeste 36 Noroeste 0 -- -- 62
2020-03-06 02:00:00 11.7 16 Noroeste 38 Noroeste 0 -- -- 59
2020-03-06 01:00:00 12.3 20 Noroeste 37 Noroeste 0 -- -- 57
2020-03-06 00:00:00 12.4 17 Noroeste 37 Noroeste 0 -- -- 57
2020-03-05 23:00:00 12.2 6 Noroeste 23 Oeste 0 -- -- 54
2020-03-05 22:00:00 13.1 12 Noroeste 37 Oeste 0 -- -- 51
2020-03-05 21:00:00 13.9 21 Noroeste 41 Oeste 0 -- -- 51
2020-03-05 20:00:00 14.8 23 Noroeste 45 Noroeste 0 -- -- 49
2020-03-05 19:00:00 16 26 Noroeste 53 Noroeste 0 -- -- 44
2020-03-05 18:00:00 17 28 Noroeste 48 Noroeste 0 -- -- 42
2020-03-05 17:00:00 18.2 24 Oeste 39 Oeste 0 -- -- 51
2020-03-05 16:00:00 18.4 28 Noroeste 50 Oeste 0 -- -- 50
2020-03-05 15:00:00 19.3 31 Oeste 58 Oeste 0 -- -- 49
2020-03-05 14:00:00 18.6 28 Oeste 45 Oeste 0 -- -- 48
2020-03-05 13:00:00 18.7 22 Noroeste 41 Oeste 0 -- -- 45
2020-03-05 12:00:00 19.3 24 Noroeste 43 Noroeste 0 -- -- 42
2020-03-05 11:00:00 17.2 18 Noroeste 32 Oeste 0 -- -- 53
2020-03-05 10:00:00 15.8 17 Oeste 30 Noroeste 0 -- -- 56
2020-03-05 09:00:00 13.6 13 Oeste 26 Oeste 0 -- -- 63
2020-03-05 08:00:00 10.7 5 Oeste 11 Oeste 0 -- -- 71
2020-03-05 07:00:00 11.4 4 Oeste 13 Sudoeste 0 -- -- 67
2020-03-05 06:00:00 11.4 4 Oeste 15 Oeste 0 -- -- 67
2020-03-05 05:00:00 10.5 7 Oeste 19 Noroeste 0 -- -- 69
2020-03-05 04:00:00 11.4 9 Oeste 17 Oeste 0 -- -- 67
2020-03-05 03:00:00 11.8 7 Oeste 15 Oeste 0 -- -- 65
2020-03-05 02:00:00 12.3 11 Noroeste 25 Oeste 0 -- -- 64
2020-03-05 01:00:00 13 16 Oeste 24 Noroeste 0 -- -- 62
2020-03-05 00:00:00 13 12 Oeste 27 Noroeste 0 -- -- 62